West Andover, Ohio
Current Conditions -  °F | °C
As of 10:53 PM on Wednesday 22 Oct 2014 (Local Time) from KHZY Reporting Station
Overcast Overcast  
Wind Chill: 45°   Ceiling: 4800
Heat Index: 45°   Visibility: 7mi
Dew Point: 43°   Wind: 0mph
Humidity: 93%   Direction: NA
Pressure: 30.23"   Gusts: NA
Location:  41.6317°N, 80.577°W
Report Text: KHZY 230253Z AUTO 00000KT 7SM OVC048 07/06 A3023 RMK AO2 SLP239 T00720061 58000
Loading
Personal Weather Stations






























Interactive Weather Map New forecast layout! Learn more

10-Day Weather Forecast

Advertisements
Track Severe Weather on mobile